METAR weather report URUGUAY

METAR es el estándar internacional del formato del código utilizado para emitir informes de las observaciones meteorológicas en los aeródromos.

Consta de una sigla traducida del francés (MÉTéorologique Aviation Régulière) como Informe meteorológico aeronáutico de rutinaria (en inglés: METeorological Aerodrome Report).

Los reportes METAR usualmente vienen de los aeropuertos y típicamente se emiten cada media o una hora, sin embargo, si las condiciones cambian significativamente pueden actualizarse con reportes llamados SPECI.

El código SPECI es el nombre en código dado al METAR emitido en una rutina no programada especial, ocasionada por cambios en las condiciones meteorológicas.

La sigla SPECI se traduce como Selección Especial del Reporte Meteorológico para la Aviación.

METAR es usado por los meteorólogos para ayudarse en los pronósticos del tiempo, y fundamentalmente por los pilotos de las aeronaves para conocer la meteorología de los aeropuertos de destino y actuar en consecuencia.

El formato que ha sido introducido en 1968 se consigue para determinado aeródromo por su código ICAO/OACI y contempla entre otros datos: viento, visibilidad, nubosidad y temperatura.


METAR is a format for reporting weather information.

A METAR weather report is predominantly used by pilots in fulfillment of a part of a pre-flight weather briefing, and by meteorologists, who use aggregated METAR information to assist in weather forecasting.

Raw METAR is the most popular format in the world for the transmission of weather data.

It is highly standardized through International Civil Aviation Organization (ICAO), which allows it to be understood throughout most of the world.

METAR reports typically come from airports or permanent weather observation stations.

Reports are typically generated once an hour; if conditions change significantly, however, they can be updated in special reports called SPECIs.

Some reports are encoded by automated airport weather stations located at airports, military bases, and other sites.

Some locations still use augmented observations, which are recorded by digital sensors, encoded via software, and then reviewed by certified weather observers or forecasters prior to being transmitted.

Observations may also be taken by trained observers or forecasters who manually observe and encode their observations prior to transmission.

The METAR format was introduced 1 January 1968 internationally and has been modified a number of times since.

A typical METAR report contains data for the temperature, dew point, wind speed and direction, precipitation, cloud cover and heights, visibility, and barometric pressure.

A METAR report may also contain information on precipitation amounts, lightning, and other information that would be of interest to pilots or meteorologists.


Last METAR data courtesy of NOAA and University of Wyoming

ICAOSUSO 
Station NameNueva Hesperides - Salto 
Location31-22S 057-57W 
Elevation34m 
Time15/08/2022 16:00:00 
Temperature21.0°C 
Wind ChillN/A 
Dew Point16.0°C 
RH73% 
WindSW (230 degrees) at 22 km/h 
Pressure1003.0 mb 
Visibility7.0km 
Heat IndexN/A 
Sky ConditionBroken clouds at 520m
Broken clouds at 6100m
 
Weather  
Remarks  
METARSUSO 151600Z 23012KT 7000 BKN017 BKN200 21/16 Q1003 

ICAOSUMU 
Station NameCarrasco - Canelones 
Location34-49S 056-00W 
Elevation32m 
Time15/08/2022 16:00:00 
Temperature16.0°C 
Wind ChillN/A 
Dew Point7.0°C 
RH55% 
WindWSW (240 degrees) at 26 km/h 
Pressure1003.0 mb 
Visibility> 10.0km 
Heat IndexN/A 
Sky ConditionBroken clouds at 460m
 
Weather  
Remarks  
METARSUMU 151600Z 24014KT 180V250 9999 BKN015 16/07 Q1003 NOSIG 

ICAOSUCA 
Station NameLaguna de los Patos - Colonia 
Location34-27S 057-49W 
Elevation23m 
Time15/08/2022 16:00:00 
Temperature15.0°C 
Wind ChillN/A 
Dew Point11.0°C 
RH77% 
WindWSW (240 degrees) at 26 km/h 
Pressure1005.1 mb 
Visibility> 10.0km 
Heat IndexN/A 
Sky ConditionFew clouds at 610m
Scattered clouds at 700m
 
Weather  
Remarks  
METARSUCA 151600Z 24014KT 210V270 9999 FEW020 SCT023 15/11 Q1005 

ICAOSUDU 
Station NameSanta Bernardina - Durazno 
Location33-21S 056-30W 
Elevation93m 
Time15/08/2022 15:00:00 
Temperature19.0°C 
Wind ChillN/A 
Dew Point10.0°C 
RH56% 
WindSE (140 degrees) at 22 km/h 
Pressure1002.0 mb 
Visibility> 10.0km 
Heat IndexN/A 
Sky ConditionFew clouds at 790m
Scattered clouds at 6100m
 
Weather  
Remarks  
METARSUDU 151500Z 14012KT 9999 FEW026 SCT200 19/10 Q1002 

ICAOSUAA 
Station NameAngel S. Adami - Montevideo 
Location34-46S 056-15W 
Elevation54m 
Time15/08/2022 16:00:00 
Temperature14.0°C 
Wind ChillN/A 
Dew Point9.0°C 
RH72% 
WindSW (230 degrees) at 22 km/h 
Pressure1003.0 mb 
Visibility> 10.0km 
Heat IndexN/A 
Sky ConditionBroken clouds at 460m
 
Weather  
Remarks  
METARSUAA 151600Z 23012KT 9999 BKN015 14/09 Q1003 

ICAOSULS 
Station NameLaguna del Sauce - Maldonado 
Location34-52S 055-06W 
Elevation30m 
Time15/08/2022 16:00:00 
Temperature17.0°C 
Wind ChillN/A 
Dew Point8.0°C 
RH55% 
WindWSW (250 degrees) at 17 km/h 
Pressure1002.0 mb 
Visibility> 10.0km 
Heat IndexN/A 
Sky ConditionFew clouds at 910m
Scattered clouds at 6100m
 
Weather  
Remarks  
METARSULS 151600Z 25009KT 9999 FEW030 SCT200 17/08 Q1002 

Process: 15/08/2022 16:36:45 UTC

MENU